Terminal Aerodrome Forecast
Issued by NWS

Home | Current Version | Previous Version | Text Only | Print | Product List | Glossary On
Versions: 1 2 3 4 5 6 7 8 9 10 11 12 13 14 15 16 17 18 19 20
000
FTUS43 KICT 300522
TAFCNU
TAF
KCNU 300522Z 3006/3106 VRB03KT P6SM SCT020 OVC100
     FM300700 33014G20KT P6SM VCTS SCT025 OVC090CB
      TEMPO 3007/3009 5SM TSRA OVC025CB
     FM301200 34015G22KT P6SM OVC015
     FM301800 34012KT P6SM BKN025
     FM302300 35006KT P6SM SCT030=

USA.gov is the U.S. government's official web portal to all federal, state and local government web resources and services.